Time;durP1;ratioP1;P1;durP2;ratioP2;P2;SDS_P1;SDS_P2;PMS_P1;PMS_P2;Temp;Humidity;BMP_temperature;BMP_pressure;BME280_temperature;BME280_humidity;BME280_pressure;Samples;Min_cycle;Max_cycle;Signal;HPM_P1;HPM_P2
2023/11/07 00:01:49;;;;;;;5.70;0.50;;;8.50;1.00;;;;;;5089194;28;20475;-69
2023/11/07 00:04:15;;;;;;;3.90;0.40;;;8.50;1.00;;;;;;5089055;28;20449;-69
2023/11/07 00:06:41;;;;;;;5.10;0.53;;;8.60;1.00;;;;;;5089465;28;20435;-69
2023/11/07 00:09:07;;;;;;;3.90;0.47;;;8.50;1.00;;;;;;5089698;28;20405;-69
2023/11/07 00:11:33;;;;;;;3.55;0.32;;;8.50;1.00;;;;;;5089221;28;20897;-69
2023/11/07 00:13:59;;;;;;;4.30;0.40;;;8.60;1.00;;;;;;5089330;28;20889;-69
2023/11/07 00:16:27;;;;;;;3.55;0.43;;;8.50;1.00;;;;;;5089046;28;20451;-69
2023/11/07 00:18:53;;;;;;;3.60;0.50;;;8.60;1.00;;;;;;5089101;28;20468;-69
2023/11/07 00:21:18;;;;;;;3.80;0.40;;;8.70;1.00;;;;;;5088913;28;20484;-70
2023/11/07 00:23:44;;;;;;;3.70;0.40;;;8.70;1.00;;;;;;5081158;28;20894;-69
2023/11/07 00:26:09;;;;;;;5.60;0.73;;;8.70;1.00;;;;;;5089171;28;20394;-69
2023/11/07 00:28:36;;;;;;;3.73;0.50;;;8.70;1.00;;;;;;5089358;28;20814;-69
2023/11/07 00:31:02;;;;;;;3.90;0.70;;;8.70;1.00;;;;;;5089197;28;20881;-69
2023/11/07 00:33:28;;;;;;;3.70;0.50;;;8.60;1.00;;;;;;5088785;28;20455;-69
2023/11/07 00:35:54;;;;;;;3.80;0.40;;;8.60;1.00;;;;;;5088831;28;20406;-69
2023/11/07 00:38:19;;;;;;;3.65;0.32;;;8.60;1.00;;;;;;5088608;28;20559;-69
2023/11/07 00:40:45;;;;;;;3.60;0.40;;;8.50;1.00;;;;;;5089696;28;20475;-69
2023/11/07 00:43:10;;;;;;;3.60;0.50;;;8.50;1.00;;;;;;5088904;28;20926;-69
2023/11/07 00:45:36;;;;;;;4.60;0.70;;;8.50;1.00;;;;;;5089044;28;20418;-69
2023/11/07 00:48:02;;;;;;;3.70;0.40;;;8.50;1.00;;;;;;5089106;28;20996;-69
2023/11/07 00:50:27;;;;;;;3.67;0.30;;;8.50;1.00;;;;;;5088712;28;20386;-69
2023/11/07 00:52:53;;;;;;;3.60;0.32;;;8.40;1.00;;;;;;5088675;28;20416;-69
2023/11/07 00:55:18;;;;;;;3.80;0.50;;;8.50;1.00;;;;;;5071143;28;20488;-69
2023/11/07 00:57:44;;;;;;;3.80;0.60;;;8.50;1.00;;;;;;5089965;28;20397;-69
2023/11/07 01:00:10;;;;;;;4.45;0.55;;;8.40;1.00;;;;;;5088345;28;20406;-69
2023/11/07 01:02:36;;;;;;;4.10;0.30;;;8.50;1.00;;;;;;5087903;28;20905;-69
2023/11/07 01:05:02;;;;;;;4.30;0.40;;;8.50;1.00;;;;;;5088690;28;20394;-69
2023/11/07 01:07:29;;;;;;;3.50;0.40;;;8.60;1.00;;;;;;5088866;28;20784;-69
2023/11/07 01:09:54;;;;;;;4.57;0.65;;;8.60;1.00;;;;;;5088793;28;20393;-69
2023/11/07 01:12:20;;;;;;;3.93;0.70;;;8.60;1.00;;;;;;5088753;28;20456;-69
2023/11/07 01:14:45;;;;;;;5.57;0.60;;;8.60;1.00;;;;;;5089846;28;20831;-69
2023/11/07 01:17:11;;;;;;;4.00;0.50;;;8.50;1.00;;;;;;5092947;28;20889;-69
2023/11/07 01:19:37;;;;;;;4.63;0.60;;;8.50;1.00;;;;;;5092810;28;20424;-69
2023/11/07 01:22:03;;;;;;;3.60;0.40;;;8.60;1.00;;;;;;5092458;28;20773;-69
2023/11/07 01:24:29;;;;;;;4.43;0.70;;;8.60;1.00;;;;;;5092627;28;20452;-69
2023/11/07 01:26:55;;;;;;;4.00;0.60;;;8.60;1.00;;;;;;5092334;28;20893;-69
2023/11/07 01:29:20;;;;;;;3.60;0.40;;;8.60;1.00;;;;;;5092280;28;20405;-69
2023/11/07 01:31:49;;;;;;;3.90;0.50;;;8.50;1.00;;;;;;5091968;28;20424;-69
2023/11/07 01:34:15;;;;;;;4.18;0.50;;;8.50;1.00;;;;;;5092704;28;20408;-69
2023/11/07 01:36:41;;;;;;;5.50;0.50;;;8.40;1.00;;;;;;5092878;28;20494;-69
2023/11/07 01:39:08;;;;;;;4.33;0.43;;;8.40;1.00;;;;;;5092465;28;20406;-69
2023/11/07 01:41:33;;;;;;;3.65;0.55;;;8.40;1.00;;;;;;5092174;28;20493;-69
2023/11/07 01:43:59;;;;;;;4.80;0.80;;;8.20;1.00;;;;;;5092057;28;20501;-69
2023/11/07 01:46:26;;;;;;;8.80;0.70;;;8.20;1.00;;;;;;5091603;28;20402;-69
2023/11/07 01:48:54;;;;;;;6.80;0.80;;;8.20;1.00;;;;;;5092498;28;20413;-69
2023/11/07 01:51:20;;;;;;;3.80;0.50;;;8.20;1.00;;;;;;5091876;28;20406;-69
2023/11/07 01:53:47;;;;;;;3.80;0.60;;;8.30;1.00;;;;;;5091927;28;20394;-69
2023/11/07 01:56:13;;;;;;;3.80;0.40;;;8.30;1.00;;;;;;5092445;28;20402;-69
2023/11/07 01:58:40;;;;;;;3.80;0.50;;;8.20;1.00;;;;;;5092134;28;20433;-69
2023/11/07 02:01:05;;;;;;;4.25;0.70;;;8.10;1.00;;;;;;5091218;28;21172;-69
2023/11/07 02:03:32;;;;;;;3.90;0.60;;;8.10;1.00;;;;;;5091477;28;20414;-69
2023/11/07 02:05:58;;;;;;;3.97;0.45;;;8.20;1.00;;;;;;5091964;28;20437;-69
2023/11/07 02:08:25;;;;;;;4.80;0.52;;;8.20;1.00;;;;;;5091243;28;20452;-69
2023/11/07 02:10:51;;;;;;;4.90;0.60;;;8.10;1.00;;;;;;5091630;28;20404;-69
2023/11/07 02:13:16;;;;;;;4.00;0.50;;;8.10;1.00;;;;;;5091837;28;20397;-69
2023/11/07 02:15:42;;;;;;;3.60;0.40;;;8.20;1.00;;;;;;5091894;28;20915;-69
2023/11/07 02:18:08;;;;;;;4.53;0.77;;;8.10;1.00;;;;;;5091511;28;20393;-69
2023/11/07 02:20:36;;;;;;;3.85;0.50;;;8.10;1.00;;;;;;5091399;28;20406;-69
2023/11/07 02:23:29;;;;;;;3.70;0.43;;;8.30;1.00;;;;;;5086403;28;20414;-69
2023/11/07 02:25:54;;;;;;;3.70;0.50;;;8.30;1.00;;;;;;5091238;28;20402;-69
2023/11/07 02:28:20;;;;;;;3.63;0.43;;;8.30;1.00;;;;;;5090610;28;20405;-69
2023/11/07 02:30:46;;;;;;;4.30;0.60;;;8.20;1.00;;;;;;5091429;28;20394;-69
2023/11/07 02:33:11;;;;;;;4.80;0.60;;;8.10;1.00;;;;;;5091688;28;20406;-69
2023/11/07 02:35:38;;;;;;;4.70;0.63;;;8.10;1.00;;;;;;5091012;28;20481;-69
2023/11/07 02:38:03;;;;;;;6.20;0.80;;;8.00;1.00;;;;;;5091206;28;20386;-69
2023/11/07 02:40:29;;;;;;;3.70;0.40;;;7.90;1.00;;;;;;5090861;28;20390;-69
2023/11/07 02:42:54;;;;;;;4.10;0.63;;;7.80;1.00;;;;;;5090793;28;20962;-69
2023/11/07 02:45:20;;;;;;;4.00;0.50;;;7.80;1.00;;;;;;5090530;28;20394;-69
2023/11/07 02:47:46;;;;;;;4.00;0.60;;;7.90;1.00;;;;;;5090783;28;20448;-69
2023/11/07 02:50:11;;;;;;;3.50;0.30;;;7.70;1.00;;;;;;5091658;28;20422;-69
2023/11/07 02:52:38;;;;;;;3.70;0.50;;;7.80;1.00;;;;;;5091100;28;20398;-69
2023/11/07 02:55:04;;;;;;;4.40;0.70;;;7.80;1.00;;;;;;5090753;28;20401;-69
2023/11/07 02:57:29;;;;;;;3.60;0.50;;;7.80;1.00;;;;;;5090527;28;20394;-69
2023/11/07 02:59:55;;;;;;;4.10;0.47;;;7.80;1.00;;;;;;5090794;28;20409;-69
2023/11/07 03:02:21;;;;;;;4.13;0.60;;;7.80;1.00;;;;;;5090459;28;20421;-68
2023/11/07 03:04:46;;;;;;;4.37;0.70;;;7.80;1.00;;;;;;5090589;28;20527;-69
2023/11/07 03:07:12;;;;;;;3.85;0.47;;;7.70;1.00;;;;;;5091234;28;20393;-69
2023/11/07 03:09:37;;;;;;;5.00;0.63;;;7.70;1.00;;;;;;5090587;28;20956;-69
2023/11/07 03:12:03;;;;;;;4.20;0.80;;;7.70;1.00;;;;;;5090641;28;20389;-69
2023/11/07 03:14:29;;;;;;;5.20;0.60;;;7.70;1.00;;;;;;5090736;28;20397;-69
2023/11/07 03:16:55;;;;;;;4.00;0.80;;;7.70;1.00;;;;;;5090173;28;20909;-69
2023/11/07 03:19:21;;;;;;;4.40;1.00;;;7.60;1.00;;;;;;5090675;28;20390;-69
2023/11/07 03:21:46;;;;;;;4.07;0.40;;;7.60;1.00;;;;;;5090556;28;20393;-69
2023/11/07 03:24:12;;;;;;;3.70;0.40;;;7.60;1.00;;;;;;5089778;28;20413;-69
2023/11/07 03:26:38;;;;;;;3.90;0.60;;;7.70;1.00;;;;;;5090033;28;20422;-69
2023/11/07 03:29:03;;;;;;;4.30;0.50;;;7.60;1.00;;;;;;5090325;28;20378;-69
2023/11/07 03:31:30;;;;;;;3.70;0.40;;;7.50;1.00;;;;;;5085388;28;20412;-69
2023/11/07 03:33:55;;;;;;;4.20;0.60;;;7.60;1.00;;;;;;5089903;28;20394;-69
2023/11/07 03:36:21;;;;;;;4.00;0.37;;;7.60;1.00;;;;;;5089369;28;20816;-69
2023/11/07 03:38:46;;;;;;;4.20;0.60;;;7.60;1.00;;;;;;5089471;28;20484;-69
2023/11/07 03:41:12;;;;;;;3.50;0.40;;;7.60;1.00;;;;;;5089643;28;20513;-69
2023/11/07 03:43:38;;;;;;;3.60;0.30;;;7.60;1.00;;;;;;5089419;28;20418;-69
2023/11/07 03:46:04;;;;;;;3.70;0.60;;;7.60;1.00;;;;;;5089494;28;20477;-69
2023/11/07 03:48:29;;;;;;;3.80;0.60;;;7.60;1.00;;;;;;5089561;28;21264;-69
2023/11/07 03:50:55;;;;;;;3.50;0.30;;;7.60;1.00;;;;;;5089527;28;20518;-69
2023/11/07 03:53:21;;;;;;;3.90;0.60;;;7.60;1.00;;;;;;5088834;28;20989;-69
2023/11/07 03:55:48;;;;;;;3.95;0.45;;;7.70;1.00;;;;;;5089058;28;20394;-69
2023/11/07 03:58:13;;;;;;;3.60;0.40;;;7.60;1.00;;;;;;5089581;28;20404;-69
2023/11/07 04:00:40;;;;;;;3.80;0.60;;;7.60;1.00;;;;;;5089254;28;20398;-69
2023/11/07 04:03:06;;;;;;;5.38;0.77;;;7.60;1.00;;;;;;5089271;28;20449;-69
2023/11/07 04:05:32;;;;;;;3.90;0.60;;;7.70;1.00;;;;;;5088843;28;20909;-69
2023/11/07 04:07:57;;;;;;;3.60;0.40;;;7.70;1.00;;;;;;5089262;28;20382;-69
2023/11/07 04:10:23;;;;;;;3.42;0.25;;;7.70;1.00;;;;;;5078789;28;20782;-69
2023/11/07 04:12:49;;;;;;;3.70;0.40;;;7.70;1.00;;;;;;5088573;28;20882;-69
2023/11/07 04:15:15;;;;;;;3.50;0.40;;;7.70;1.00;;;;;;5089207;28;20382;-69
2023/11/07 04:17:41;;;;;;;4.80;0.70;;;7.60;1.00;;;;;;5089085;28;20412;-69
2023/11/07 04:20:09;;;;;;;3.60;0.30;;;7.80;1.00;;;;;;5088705;28;20455;-69
2023/11/07 04:22:35;;;;;;;3.50;0.30;;;7.80;1.00;;;;;;5086709;28;20413;-69
2023/11/07 04:25:01;;;;;;;4.00;0.50;;;7.80;1.00;;;;;;5088812;28;20528;-69
2023/11/07 04:27:27;;;;;;;3.58;0.40;;;7.90;1.00;;;;;;5088722;28;20465;-69
2023/11/07 04:29:52;;;;;;;4.00;0.70;;;7.90;1.00;;;;;;5088331;28;20496;-69
2023/11/07 04:32:18;;;;;;;4.10;0.40;;;7.90;1.00;;;;;;5088736;28;20467;-69
2023/11/07 04:34:44;;;;;;;3.60;0.40;;;8.10;1.00;;;;;;5089442;28;20881;-69
2023/11/07 04:37:10;;;;;;;3.70;0.50;;;8.20;1.00;;;;;;5088878;28;20390;-69
2023/11/07 04:39:36;;;;;;;3.60;0.40;;;8.30;1.00;;;;;;5087984;28;20406;-69
2023/11/07 04:42:03;;;;;;;3.90;0.65;;;8.30;1.00;;;;;;5088418;28;20488;-69
2023/11/07 04:44:28;;;;;;;3.60;0.50;;;8.30;1.00;;;;;;5088377;28;20424;-69
2023/11/07 04:46:54;;;;;;;5.17;0.50;;;8.30;1.00;;;;;;5088685;28;20394;-69
2023/11/07 04:49:19;;;;;;;4.40;0.70;;;8.30;1.00;;;;;;5087493;28;20404;-69
2023/11/07 04:51:46;;;;;;;3.90;0.50;;;8.20;1.00;;;;;;5089200;28;20473;-68
2023/11/07 04:54:11;;;;;;;3.83;0.47;;;8.20;1.00;;;;;;5086495;28;20390;-68
2023/11/07 04:56:37;;;;;;;3.88;0.38;;;8.30;1.00;;;;;;5087471;28;20723;-69
2023/11/07 04:59:02;;;;;;;4.00;0.57;;;8.30;1.00;;;;;;5088408;28;20425;-69
2023/11/07 05:01:29;;;;;;;4.00;0.60;;;8.30;1.00;;;;;;5076686;28;20485;-69
2023/11/07 05:03:55;;;;;;;3.95;0.50;;;8.20;1.00;;;;;;5088210;28;20418;-69
2023/11/07 05:06:20;;;;;;;3.60;0.40;;;8.20;1.00;;;;;;5088604;28;20435;-69
2023/11/07 05:08:46;;;;;;;3.80;0.50;;;8.20;1.00;;;;;;5085346;28;20409;-69
2023/11/07 05:11:17;;;;;;;4.03;0.50;;;8.10;1.00;;;;;;5085422;28;20398;-69
2023/11/07 05:13:44;;;;;;;3.50;0.30;;;8.00;1.00;;;;;;5088681;28;20406;-69
2023/11/07 05:16:10;;;;;;;3.70;0.30;;;7.90;1.00;;;;;;5072451;28;20399;-69
2023/11/07 05:18:35;;;;;;;3.50;0.40;;;7.90;1.00;;;;;;5085554;28;20788;-71
2023/11/07 05:21:01;;;;;;;3.53;0.40;;;7.90;1.00;;;;;;5082200;28;20913;-69
2023/11/07 05:23:26;;;;;;;3.70;0.40;;;7.90;1.00;;;;;;5086039;28;20418;-69
2023/11/07 05:25:52;;;;;;;3.60;0.40;;;7.80;1.00;;;;;;5085810;28;20829;-69
2023/11/07 05:28:18;;;;;;;3.67;0.50;;;7.80;1.00;;;;;;5076534;28;20396;-69
2023/11/07 05:30:43;;;;;;;3.90;0.70;;;7.90;1.00;;;;;;5081305;28;20916;-69
2023/11/07 05:33:09;;;;;;;3.50;0.37;;;7.90;1.00;;;;;;5087950;28;20894;-69
2023/11/07 05:35:36;;;;;;;3.78;0.60;;;7.80;1.00;;;;;;5088244;28;20392;-75
2023/11/07 05:38:02;;;;;;;5.20;0.60;;;8.00;1.00;;;;;;5085326;28;20739;-75
2023/11/07 05:40:27;;;;;;;3.60;0.30;;;7.90;1.00;;;;;;5076766;28;20452;-75
2023/11/07 05:42:53;;;;;;;3.90;0.40;;;7.90;1.00;;;;;;5087514;28;20781;-75
2023/11/07 05:45:18;;;;;;;4.00;0.50;;;7.90;1.00;;;;;;5084734;28;20439;-76
2023/11/07 05:47:44;;;;;;;3.70;0.30;;;7.90;1.00;;;;;;5088392;28;20814;-75
2023/11/07 05:50:10;;;;;;;3.60;0.37;;;7.90;1.00;;;;;;5082444;28;20455;-75
2023/11/07 05:52:36;;;;;;;4.20;0.80;;;7.90;1.00;;;;;;5087400;28;20397;-75
2023/11/07 05:55:03;;;;;;;3.50;0.30;;;7.80;1.00;;;;;;5082707;28;20502;-70
2023/11/07 05:57:30;;;;;;;3.60;0.30;;;7.80;1.00;;;;;;5081551;28;20402;-69
2023/11/07 05:59:56;;;;;;;4.18;0.40;;;7.80;1.00;;;;;;5076126;28;20936;-69
2023/11/07 06:02:22;;;;;;;3.70;0.60;;;7.80;1.00;;;;;;5090080;28;20386;-69
2023/11/07 06:04:47;;;;;;;3.90;0.75;;;7.70;1.00;;;;;;5088729;28;20401;-69
2023/11/07 06:07:13;;;;;;;3.60;0.40;;;7.70;1.00;;;;;;5087204;28;20402;-69
2023/11/07 06:09:38;;;;;;;3.67;0.40;;;7.80;1.00;;;;;;5091279;28;20425;-69
2023/11/07 06:12:04;;;;;;;5.20;0.80;;;7.90;1.00;;;;;;5090996;28;20420;-69
2023/11/07 06:14:30;;;;;;;9.20;1.40;;;7.90;1.00;;;;;;5091013;28;20415;-69
2023/11/07 06:16:55;;;;;;;3.80;0.60;;;8.00;1.00;;;;;;5091545;28;20461;-69
2023/11/07 06:19:21;;;;;;;3.80;0.70;;;8.00;1.00;;;;;;5091945;28;20394;-69
2023/11/07 06:21:48;;;;;;;4.70;0.52;;;8.10;1.00;;;;;;5087615;28;20841;-69
2023/11/07 06:24:14;;;;;;;4.20;0.60;;;8.10;1.00;;;;;;5089023;28;20417;-69
2023/11/07 06:26:40;;;;;;;4.10;0.40;;;8.10;1.00;;;;;;5091927;28;20394;-69
2023/11/07 06:29:05;;;;;;;4.50;0.70;;;8.20;1.00;;;;;;5091328;28;20401;-69
2023/11/07 06:31:31;;;;;;;3.60;0.40;;;8.30;1.00;;;;;;5088065;28;20425;-69
2023/11/07 06:33:57;;;;;;;3.90;0.60;;;8.40;1.00;;;;;;5090345;28;20386;-69
2023/11/07 06:36:24;;;;;;;3.90;0.57;;;8.40;1.00;;;;;;5089708;28;20397;-69
2023/11/07 06:38:50;;;;;;;4.30;0.60;;;8.50;1.00;;;;;;5089975;28;20382;-68
2023/11/07 06:41:17;;;;;;;6.30;0.70;;;8.60;1.00;;;;;;5090563;28;20902;-68
2023/11/07 06:43:46;;;;;;;3.88;0.52;;;8.60;1.00;;;;;;5089854;28;20503;-68
2023/11/07 06:46:13;;;;;;;5.03;0.50;;;8.70;1.00;;;;;;5089734;28;20382;-68
2023/11/07 06:48:39;;;;;;;3.70;0.50;;;8.80;1.00;;;;;;5088930;28;20390;-68
2023/11/07 06:51:05;;;;;;;3.78;0.50;;;8.80;1.00;;;;;;5089457;28;20393;-68
2023/11/07 06:53:30;;;;;;;4.00;0.40;;;8.90;1.00;;;;;;5089083;28;20387;-68
2023/11/07 06:55:57;;;;;;;3.87;0.50;;;8.90;1.00;;;;;;5089382;28;20469;-68
2023/11/07 06:58:23;;;;;;;3.60;0.50;;;8.90;1.00;;;;;;5091316;28;20382;-68
2023/11/07 07:00:48;;;;;;;4.30;0.60;;;8.90;1.00;;;;;;5094760;28;20393;-68
2023/11/07 07:03:14;;;;;;;3.78;0.30;;;8.90;1.00;;;;;;5091520;28;20910;-68
2023/11/07 07:05:40;;;;;;;3.80;0.30;;;8.90;1.00;;;;;;5082724;28;20463;-68
2023/11/07 07:08:08;;;;;;;4.20;0.60;;;8.90;1.00;;;;;;5082942;28;20488;-68
2023/11/07 07:10:34;;;;;;;3.80;0.40;;;9.00;1.00;;;;;;5090708;28;20405;-68
2023/11/07 07:12:59;;;;;;;3.90;0.50;;;9.00;1.00;;;;;;5090033;28;20889;-68
2023/11/07 07:15:25;;;;;;;3.60;0.30;;;9.10;1.00;;;;;;5090896;28;20386;-68
2023/11/07 07:17:50;;;;;;;4.90;0.70;;;9.10;1.00;;;;;;5090672;28;20469;-68
2023/11/07 07:20:16;;;;;;;3.80;0.50;;;9.20;1.00;;;;;;5090870;28;20516;-68
2023/11/07 07:22:43;;;;;;;4.05;0.52;;;9.40;1.00;;;;;;5090750;28;20785;-68
2023/11/07 07:25:15;;;;;;;5.10;0.73;;;9.70;1.00;;;;;;5090632;28;20871;-68
2023/11/07 07:27:44;;;;;;;4.40;0.50;;;9.80;1.00;;;;;;5090532;28;20394;-68
2023/11/07 07:30:15;;;;;;;4.30;0.65;;;10.10;1.00;;;;;;5090465;28;20381;-68
2023/11/07 07:32:41;;;;;;;4.40;0.90;;;11.00;1.00;;;;;;5090993;28;20390;-68
2023/11/07 07:35:14;;;;;;;4.70;0.50;;;11.00;1.00;;;;;;5090432;28;20901;-68
2023/11/07 07:37:45;;;;;;;3.90;0.50;;;10.60;1.00;;;;;;5090052;28;20409;-68
2023/11/07 07:40:14;;;;;;;4.60;0.55;;;10.40;1.00;;;;;;5089978;28;20378;-69
2023/11/07 07:42:43;;;;;;;4.00;0.60;;;10.20;1.00;;;;;;5089778;28;20428;-69
2023/11/07 07:45:11;;;;;;;5.37;0.87;;;10.00;1.00;;;;;;5090344;28;20435;-69
2023/11/07 07:47:39;;;;;;;3.90;0.50;;;10.10;1.00;;;;;;5090046;28;20959;-70
2023/11/07 07:50:10;;;;;;;4.30;0.70;;;10.20;1.00;;;;;;5090029;28;20398;-69
2023/11/07 07:52:38;;;;;;;4.70;0.82;;;10.30;1.00;;;;;;5090137;28;21575;-69
2023/11/07 07:55:07;;;;;;;3.90;0.52;;;10.60;1.00;;;;;;5089689;28;20905;-69
2023/11/07 07:57:36;;;;;;;4.32;0.55;;;10.80;1.00;;;;;;5089868;28;20967;-69
2023/11/07 08:00:03;;;;;;;4.60;0.50;;;10.90;1.00;;;;;;5089973;28;20386;-69
2023/11/07 08:02:29;;;;;;;4.10;0.52;;;11.00;1.00;;;;;;5089850;28;20380;-69
2023/11/07 08:04:56;;;;;;;4.15;0.52;;;10.90;1.00;;;;;;5089236;28;20852;-69
2023/11/07 08:07:22;;;;;;;4.32;0.50;;;11.50;1.00;;;;;;5089428;28;20374;-69
2023/11/07 08:09:49;;;;;;;3.90;0.40;;;11.90;1.00;;;;;;5089420;28;20494;-69
2023/11/07 08:12:15;;;;;;;4.90;0.73;;;12.00;99.90;;;;;;5090221;28;20469;-70
2023/11/07 08:14:43;;;;;;;4.28;0.60;;;12.10;99.90;;;;;;5089865;28;20929;-70
2023/11/07 08:17:09;;;;;;;7.03;0.60;;;12.20;99.90;;;;;;5089685;28;20430;-70
2023/11/07 08:19:35;;;;;;;4.40;0.80;;;12.10;99.90;;;;;;5089052;28;20409;-70
2023/11/07 08:22:00;;;;;;;4.10;0.50;;;12.00;99.90;;;;;;5089396;28;20913;-70
2023/11/07 08:24:26;;;;;;;4.30;0.63;;;11.90;99.90;;;;;;5088675;28;20900;-70
2023/11/07 08:26:52;;;;;;;4.43;0.60;;;12.00;99.90;;;;;;5089464;28;20386;-71
2023/11/07 08:29:17;;;;;;;4.27;0.50;;;12.10;99.90;;;;;;5089458;28;20383;-71
2023/11/07 08:31:43;;;;;;;4.80;0.73;;;12.20;99.90;;;;;;5090217;28;20382;-70
2023/11/07 08:34:09;;;;;;;4.20;0.50;;;12.40;99.90;;;;;;5089780;28;20386;-70
2023/11/07 08:36:37;;;;;;;4.10;0.50;;;12.90;99.90;;;;;;5089200;28;20386;-70
2023/11/07 08:39:03;;;;;;;4.30;0.50;;;12.70;99.90;;;;;;5089428;28;20427;-70
2023/11/07 08:41:29;;;;;;;4.30;0.70;;;12.30;99.90;;;;;;5089063;28;20406;-70
2023/11/07 08:43:54;;;;;;;5.43;0.73;;;12.10;99.90;;;;;;5089049;28;21251;-70
2023/11/07 08:46:23;;;;;;;4.35;0.70;;;11.90;99.90;;;;;;5088721;28;21312;-69
2023/11/07 08:48:51;;;;;;;4.88;1.00;;;11.50;99.90;;;;;;5088685;28;20393;-70
2023/11/07 08:51:17;;;;;;;4.28;0.57;;;11.50;99.90;;;;;;5089197;28;20394;-69
2023/11/07 08:53:43;;;;;;;5.40;0.70;;;11.50;99.90;;;;;;5089452;28;20396;-69
2023/11/07 08:56:09;;;;;;;4.20;0.60;;;11.50;99.90;;;;;;5089324;28;20370;-69
2023/11/07 08:58:35;;;;;;;4.57;0.70;;;11.50;99.90;;;;;;5088926;28;20865;-69
2023/11/07 09:01:01;;;;;;;4.30;0.57;;;11.40;99.90;;;;;;5089193;28;20397;-70
2023/11/07 09:03:27;;;;;;;5.00;1.38;;;11.50;99.90;;;;;;5088726;28;20769;-70
2023/11/07 09:05:53;;;;;;;10.80;1.02;;;11.50;99.90;;;;;;5088817;28;20393;-70
2023/11/07 09:08:18;;;;;;;4.33;0.67;;;11.60;99.90;;;;;;5089323;28;20382;-71
2023/11/07 09:10:44;;;;;;;4.50;0.80;;;11.70;99.90;;;;;;5089512;28;20413;-71
2023/11/07 09:13:10;;;;;;;4.60;0.80;;;11.90;99.90;;;;;;5089234;28;20385;-71
2023/11/07 09:15:36;;;;;;;5.20;0.90;;;12.30;1.00;;;;;;5089079;28;20753;-71
2023/11/07 09:18:02;;;;;;;4.50;0.90;;;12.50;1.00;;;;;;5088614;28;20394;-71
2023/11/07 09:20:28;;;;;;;4.20;0.53;;;12.70;1.00;;;;;;5088940;28;20393;-71
2023/11/07 09:22:54;;;;;;;4.20;0.60;;;12.90;99.90;;;;;;5088558;28;20414;-71
2023/11/07 09:25:21;;;;;;;4.80;0.70;;;13.10;99.90;;;;;;5089120;28;20386;-69
2023/11/07 09:27:47;;;;;;;4.20;0.70;;;13.20;99.90;;;;;;5088890;28;20519;-71
2023/11/07 09:30:13;;;;;;;4.30;0.80;;;13.20;1.00;;;;;;5089564;28;20469;-70
2023/11/07 09:32:39;;;;;;;5.35;0.80;;;13.20;99.90;;;;;;5088373;28;20886;-70
2023/11/07 09:35:09;;;;;;;4.15;0.60;;;13.20;99.90;;;;;;5088635;28;20390;-70
2023/11/07 09:37:39;;;;;;;4.00;0.50;;;13.20;99.90;;;;;;5092320;28;20904;-70
2023/11/07 09:40:19;;;;;;;4.60;0.80;;;13.20;99.90;;;;;;5092778;28;20846;-71
2023/11/07 09:42:47;;;;;;;4.07;0.47;;;13.30;99.90;;;;;;5092759;28;20426;-69
2023/11/07 09:45:14;;;;;;;4.70;0.60;;;13.20;99.90;;;;;;5092705;28;20401;-70
2023/11/07 09:47:45;;;;;;;5.43;0.60;;;13.30;99.90;;;;;;5092408;28;20484;-70
2023/11/07 09:50:11;;;;;;;4.00;0.50;;;13.10;99.90;;;;;;5092650;28;20431;-70
2023/11/07 09:52:38;;;;;;;4.50;0.60;;;13.10;99.90;;;;;;5092477;28;20398;-70
2023/11/07 09:55:08;;;;;;;4.30;0.60;;;13.00;99.90;;;;;;5092372;28;20727;-70
2023/11/07 09:57:42;;;;;;;5.30;0.70;;;13.00;99.90;;;;;;5092258;28;20447;-70
2023/11/07 10:00:09;;;;;;;4.00;0.40;;;13.00;99.90;;;;;;5092161;28;20382;-70
2023/11/07 10:02:36;;;;;;;4.00;0.50;;;13.20;99.90;;;;;;5091830;28;20378;-70
2023/11/07 10:05:02;;;;;;;4.30;0.60;;;13.20;99.90;;;;;;5091977;28;20906;-69
2023/11/07 10:07:28;;;;;;;4.20;0.60;;;13.50;99.90;;;;;;5092026;28;20394;-69
2023/11/07 10:09:54;;;;;;;4.20;0.50;;;13.40;99.90;;;;;;5091783;28;20394;-70
2023/11/07 10:12:20;;;;;;;3.85;0.38;;;13.20;99.90;;;;;;5092305;28;20421;-70
2023/11/07 10:14:46;;;;;;;4.00;0.40;;;13.20;99.90;;;;;;5093003;28;20390;-69
2023/11/07 10:17:22;;;;;;;4.00;0.40;;;12.80;99.90;;;;;;5095051;28;20447;-70
2023/11/07 10:20:11;;;;;;;4.10;0.50;;;13.00;99.90;;;;;;5091715;28;20398;-70
2023/11/07 10:22:46;;;;;;;4.20;0.50;;;13.00;99.90;;;;;;5091932;28;20386;-70
2023/11/07 10:25:49;;;;;;;3.90;0.40;;;12.60;99.90;;;;;;5092469;28;20374;-70
2023/11/07 10:28:15;;;;;;;4.20;0.40;;;12.20;99.90;;;;;;5050231;28;20885;-70
2023/11/07 10:30:45;;;;;;;4.10;0.60;;;12.00;99.90;;;;;;5091924;28;20390;-69
2023/11/07 10:33:32;;;;;;;4.10;0.60;;;11.80;99.90;;;;;;5091984;28;20955;-69
2023/11/07 10:36:00;;;;;;;4.13;0.52;;;11.90;99.90;;;;;;5091496;28;20417;-69
2023/11/07 10:38:26;;;;;;;4.00;0.40;;;11.80;99.90;;;;;;5092245;28;20437;-69
2023/11/07 10:40:52;;;;;;;3.90;0.30;;;11.80;99.90;;;;;;5091854;28;20406;-69
2023/11/07 10:43:38;;;;;;;3.83;0.40;;;11.90;99.90;;;;;;5091963;28;20468;-69
2023/11/07 10:46:09;;;;;;;3.90;0.50;;;11.90;99.90;;;;;;5091634;28;20394;-69
2023/11/07 10:48:39;;;;;;;7.10;0.60;;;12.00;99.90;;;;;;5090934;28;20387;-69
2023/11/07 10:51:08;;;;;;;4.00;0.60;;;12.10;99.90;;;;;;5073328;28;20885;-69
2023/11/07 10:53:41;;;;;;;3.97;0.50;;;12.20;99.90;;;;;;5091970;28;20383;-69
2023/11/07 10:56:20;;;;;;;4.70;0.50;;;12.30;99.90;;;;;;5092187;28;20393;-69
2023/11/07 10:58:58;;;;;;;4.20;0.50;;;12.30;99.90;;;;;;5092501;28;20398;-69
2023/11/07 11:01:27;;;;;;;4.00;0.50;;;11.90;99.90;;;;;;5091897;28;20735;-69
2023/11/07 11:03:54;;;;;;;4.00;0.50;;;11.60;99.90;;;;;;5091570;28;20449;-69
2023/11/07 11:06:23;;;;;;;3.80;0.30;;;11.40;99.90;;;;;;5091225;28;20762;-69
2023/11/07 11:09:06;;;;;;;3.92;0.40;;;11.10;99.90;;;;;;5091560;28;20889;-68
2023/11/07 11:11:33;;;;;;;6.40;0.50;;;10.90;99.90;;;;;;5091111;28;20942;-68
2023/11/07 11:13:59;;;;;;;3.80;0.20;;;10.90;99.90;;;;;;5089881;28;20386;-69
2023/11/07 11:16:26;;;;;;;4.32;0.30;;;10.90;99.90;;;;;;5091021;28;20722;-68
2023/11/07 11:19:09;;;;;;;3.80;0.30;;;10.80;99.90;;;;;;5091044;28;20550;-68
2023/11/07 11:21:51;;;;;;;3.70;0.20;;;10.60;99.90;;;;;;5090929;28;20397;-68
2023/11/07 11:24:38;;;;;;;3.97;0.30;;;10.80;99.90;;;;;;5090730;28;20444;-69
2023/11/07 11:27:45;;;;;;;3.80;0.30;;;11.00;99.90;;;;;;5090780;28;20451;-69
2023/11/07 11:30:11;;;;;;;3.80;0.30;;;10.80;99.90;;;;;;5088155;28;20466;-69
2023/11/07 11:32:42;;;;;;;4.00;0.50;;;10.90;99.90;;;;;;5090715;28;20414;-69
2023/11/07 11:35:17;;;;;;;3.80;0.20;;;11.00;99.90;;;;;;5090769;28;20733;-69
2023/11/07 11:38:09;;;;;;;3.80;0.20;;;11.20;99.90;;;;;;5090993;28;20390;-70
2023/11/07 11:41:06;;;;;;;5.10;0.30;;;11.30;99.90;;;;;;5090076;28;20723;-70
2023/11/07 11:43:34;;;;;;;3.85;0.30;;;11.40;99.90;;;;;;5070435;28;20433;-69
2023/11/07 11:46:13;;;;;;;4.20;0.50;;;11.20;99.90;;;;;;5090301;28;20398;-69
2023/11/07 11:48:50;;;;;;;3.80;0.30;;;11.10;99.90;;;;;;5090040;28;20866;-69
2023/11/07 11:51:31;;;;;;;3.80;0.30;;;11.30;99.90;;;;;;5090758;28;20461;-68
2023/11/07 11:53:58;;;;;;;3.80;0.30;;;11.20;99.90;;;;;;5090046;28;20956;-68
2023/11/07 11:56:23;;;;;;;3.70;0.20;;;11.10;99.90;;;;;;5090187;28;20477;-68
2023/11/07 11:59:11;;;;;;;3.87;0.37;;;11.20;99.90;;;;;;5089807;28;20477;-69
2023/11/07 12:01:50;;;;;;;3.90;0.40;;;11.30;99.90;;;;;;5089428;28;20390;-70
2023/11/07 12:04:35;;;;;;;3.80;0.38;;;11.80;99.90;;;;;;5090083;28;20459;-70
2023/11/07 12:07:07;;;;;;;3.80;0.30;;;11.90;99.90;;;;;;5090088;28;20473;-70
2023/11/07 12:09:34;;;;;;;4.10;0.47;;;11.90;99.90;;;;;;5089917;28;20457;-70
2023/11/07 12:12:01;;;;;;;3.90;0.50;;;12.00;99.90;;;;;;5089382;28;20793;-70
2023/11/07 12:14:28;;;;;;;3.80;0.30;;;11.90;99.90;;;;;;5090033;28;20477;-69
2023/11/07 12:16:58;;;;;;;3.90;0.40;;;11.90;99.90;;;;;;5089636;28;20397;-69
2023/11/07 12:19:24;;;;;;;3.80;0.30;;;12.10;99.90;;;;;;5089867;28;20948;-69
2023/11/07 12:21:53;;;;;;;4.00;0.30;;;11.90;99.90;;;;;;5089659;28;20409;-70
2023/11/07 12:24:22;;;;;;;4.30;0.30;;;12.20;99.90;;;;;;5089726;28;20420;-70
2023/11/07 12:26:48;;;;;;;4.40;0.40;;;12.20;99.90;;;;;;5089332;28;20750;-70
2023/11/07 12:29:30;;;;;;;3.83;0.30;;;12.30;99.90;;;;;;5089832;28;20385;-70
2023/11/07 12:31:55;;;;;;;3.90;0.40;;;12.10;99.90;;;;;;5089571;28;20473;-70
2023/11/07 12:34:33;;;;;;;4.10;0.40;;;12.40;99.90;;;;;;5089431;28;20473;-70
2023/11/07 12:37:14;;;;;;;4.00;0.30;;;12.60;99.90;;;;;;5089217;28;20746;-70
2023/11/07 12:39:41;;;;;;;3.83;0.38;;;12.30;99.90;;;;;;5089661;28;20389;-70
2023/11/07 12:42:08;;;;;;;3.80;0.30;;;12.10;99.90;;;;;;5088726;28;20414;-70
2023/11/07 12:44:34;;;;;;;3.90;0.40;;;12.00;99.90;;;;;;5089626;28;20406;-69
2023/11/07 12:47:00;;;;;;;4.07;0.30;;;12.20;99.90;;;;;;5089190;28;20373;-69
2023/11/07 12:49:27;;;;;;;3.80;0.30;;;12.60;99.90;;;;;;5089217;28;20761;-69
2023/11/07 12:51:55;;;;;;;3.80;0.30;;;12.60;99.90;;;;;;5089037;28;20382;-70
2023/11/07 12:54:26;;;;;;;5.05;0.60;;;12.50;99.90;;;;;;5089507;28;20378;-70
2023/11/07 12:56:51;;;;;;;3.80;0.30;;;12.70;99.90;;;;;;5089050;28;20390;-71
2023/11/07 12:59:17;;;;;;;6.70;0.40;;;12.70;99.90;;;;;;5089431;28;20473;-69
2023/11/07 13:01:47;;;;;;;3.90;0.40;;;12.90;99.90;;;;;;5089732;28;20494;-69
2023/11/07 13:04:17;;;;;;;3.80;0.25;;;12.70;99.90;;;;;;5089529;28;20424;-69